Time;durP1;ratioP1;P1;durP2;ratioP2;P2;SDS_P1;SDS_P2;PMS_P1;PMS_P2;Temp;Humidity;BMP_temperature;BMP_pressure;BME280_temperature;BME280_humidity;BME280_pressure;Samples;Min_cycle;Max_cycle;Signal;HPM_P1;HPM_P2
2021/06/03 00:01:03;;;;;;;7.27;6.57;;;;;;;;;;5054936;28;20490;-75
2021/06/03 00:03:31;;;;;;;7.80;7.00;;;;;;;;;;5054898;28;20835;-75
2021/06/03 00:05:58;;;;;;;7.53;6.83;;;;;;;;;;5054946;28;20433;-75
2021/06/03 00:08:25;;;;;;;7.90;6.77;;;;;;;;;;5054670;28;20449;-76
2021/06/03 00:10:57;;;;;;;6.80;6.30;;;;;;;;;;5054566;28;20932;-75
2021/06/03 00:13:24;;;;;;;7.50;6.73;;;;;;;;;;5058019;28;21021;-75
2021/06/03 00:15:51;;;;;;;7.73;7.13;;;;;;;;;;5054809;28;20427;-75
2021/06/03 00:18:17;;;;;;;7.03;6.50;;;;;;;;;;5070127;28;20465;-75
2021/06/03 00:20:43;;;;;;;8.00;7.30;;;;;;;;;;5065908;28;20820;-73
2021/06/03 00:23:09;;;;;;;7.50;7.00;;;;;;;;;;5053113;28;20827;-74
2021/06/03 00:25:36;;;;;;;7.57;6.97;;;;;;;;;;5054619;28;20781;-75
2021/06/03 00:28:02;;;;;;;7.80;7.10;;;;;;;;;;5058108;28;20411;-75
2021/06/03 00:30:28;;;;;;;7.73;7.00;;;;;;;;;;5054472;28;20775;-75
2021/06/03 00:32:54;;;;;;;7.17;6.63;;;;;;;;;;5054457;28;20411;-75
2021/06/03 00:35:21;;;;;;;7.53;6.93;;;;;;;;;;5053212;28;20439;-75
2021/06/03 00:37:48;;;;;;;8.23;7.00;;;;;;;;;;5053915;28;20418;-75
2021/06/03 00:40:15;;;;;;;8.47;7.13;;;;;;;;;;5054559;28;20504;-74
2021/06/03 00:42:41;;;;;;;7.10;6.50;;;;;;;;;;5054586;28;20436;-74
2021/06/03 00:45:08;;;;;;;7.10;6.60;;;;;;;;;;5054394;28;20487;-75
2021/06/03 00:47:34;;;;;;;9.00;7.67;;;;;;;;;;5053903;28;20408;-74
2021/06/03 00:50:00;;;;;;;7.10;6.50;;;;;;;;;;5054067;28;20484;-75
2021/06/03 00:52:26;;;;;;;7.30;6.60;;;;;;;;;;5054042;28;20446;-75
2021/06/03 00:54:52;;;;;;;7.10;6.50;;;;;;;;;;5053751;28;20459;-74
2021/06/03 00:57:19;;;;;;;7.97;7.27;;;;;;;;;;5054047;28;20419;-74
2021/06/03 00:59:45;;;;;;;8.03;7.43;;;;;;;;;;5053748;28;20427;-74
2021/06/03 01:02:11;;;;;;;7.17;6.67;;;;;;;;;;5053925;28;20816;-76
2021/06/03 01:04:37;;;;;;;7.60;7.03;;;;;;;;;;5053697;28;20407;-75
2021/06/03 01:07:04;;;;;;;7.80;7.10;;;;;;;;;;5053825;28;20438;-76
2021/06/03 01:09:38;;;;;;;7.93;7.23;;;;;;;;;;5053617;28;20450;-75
2021/06/03 01:12:07;;;;;;;7.60;7.00;;;;;;;;;;5059395;28;20406;-74
2021/06/03 01:14:36;;;;;;;7.73;7.10;;;;;;;;;;5062360;28;20835;-74
2021/06/03 01:17:02;;;;;;;7.93;7.27;;;;;;;;;;5054511;28;20412;-75
2021/06/03 01:19:32;;;;;;;7.40;6.90;;;;;;;;;;5073418;28;20438;-75
2021/06/03 01:22:05;;;;;;;7.33;6.80;;;;;;;;;;5058490;28;20439;-73
2021/06/03 01:24:32;;;;;;;9.10;8.30;;;;;;;;;;5053472;28;20506;-74
2021/06/03 01:27:03;;;;;;;7.70;7.10;;;;;;;;;;5053517;28;20491;-75
2021/06/03 01:29:33;;;;;;;8.03;7.33;;;;;;;;;;5061406;28;20419;-74
2021/06/03 01:31:59;;;;;;;7.50;6.90;;;;;;;;;;5080520;28;20449;-75
2021/06/03 01:34:27;;;;;;;7.50;6.90;;;;;;;;;;5071442;28;20515;-75
2021/06/03 01:36:53;;;;;;;7.27;6.67;;;;;;;;;;5056087;28;20415;-75
2021/06/03 01:39:20;;;;;;;8.20;7.50;;;;;;;;;;5057558;28;20494;-76
2021/06/03 01:41:46;;;;;;;7.63;6.93;;;;;;;;;;5053352;28;20456;-74
2021/06/03 01:44:12;;;;;;;8.27;7.57;;;;;;;;;;5052983;28;20509;-75
2021/06/03 01:46:39;;;;;;;7.80;7.20;;;;;;;;;;5053050;28;20428;-76
2021/06/03 01:49:05;;;;;;;8.67;7.50;;;;;;;;;;5052863;28;20908;-76
2021/06/03 01:51:31;;;;;;;8.23;7.57;;;;;;;;;;5064342;28;20459;-74
2021/06/03 01:53:57;;;;;;;6.97;6.47;;;;;;;;;;5052790;28;20882;-73
2021/06/03 01:56:23;;;;;;;10.13;7.27;;;;;;;;;;5053179;28;20411;-74
2021/06/03 01:58:50;;;;;;;7.60;7.00;;;;;;;;;;5053107;28;20411;-76
2021/06/03 02:01:18;;;;;;;8.17;7.57;;;;;;;;;;5052864;28;20465;-74
2021/06/03 02:03:45;;;;;;;7.60;7.00;;;;;;;;;;5053031;28;20423;-75
2021/06/03 02:06:11;;;;;;;7.93;7.23;;;;;;;;;;5052779;28;20455;-75
2021/06/03 02:08:37;;;;;;;8.30;7.50;;;;;;;;;;5062452;28;20428;-72
2021/06/03 02:11:03;;;;;;;9.97;7.70;;;;;;;;;;5056010;28;20443;-74
2021/06/03 02:13:30;;;;;;;7.70;7.13;;;;;;;;;;5064480;28;20459;-73
2021/06/03 02:16:04;;;;;;;7.97;7.37;;;;;;;;;;5060181;28;20846;-74
2021/06/03 02:18:32;;;;;;;7.60;7.00;;;;;;;;;;5065584;28;20506;-75
2021/06/03 02:20:58;;;;;;;8.27;7.47;;;;;;;;;;5066666;28;20475;-74
2021/06/03 02:23:25;;;;;;;7.80;7.20;;;;;;;;;;5063432;28;20426;-74
2021/06/03 02:25:51;;;;;;;6.97;6.47;;;;;;;;;;5066347;28;20974;-73
2021/06/03 02:28:17;;;;;;;7.50;6.90;;;;;;;;;;5062458;28;20513;-75
2021/06/03 02:30:44;;;;;;;8.30;7.50;;;;;;;;;;5053028;28;20423;-74
2021/06/03 02:33:10;;;;;;;7.47;6.90;;;;;;;;;;5070777;28;20429;-74
2021/06/03 02:35:36;;;;;;;7.83;7.23;;;;;;;;;;5070492;28;20436;-73
2021/06/03 02:38:02;;;;;;;8.07;7.30;;;;;;;;;;5072233;28;20508;-74
2021/06/03 02:40:29;;;;;;;6.83;6.33;;;;;;;;;;5064677;28;21022;-74
2021/06/03 02:42:56;;;;;;;7.37;6.77;;;;;;;;;;5058707;28;20417;-75
2021/06/03 02:45:24;;;;;;;7.53;6.93;;;;;;;;;;5052741;28;20757;-73
2021/06/03 02:47:50;;;;;;;8.57;7.37;;;;;;;;;;5069388;28;20803;-75
2021/06/03 02:50:17;;;;;;;7.97;7.27;;;;;;;;;;5078950;28;20489;-74
2021/06/03 02:52:43;;;;;;;8.13;7.53;;;;;;;;;;5069457;28;20472;-74
2021/06/03 02:55:11;;;;;;;8.20;7.40;;;;;;;;;;5064821;28;20520;-74
2021/06/03 02:57:37;;;;;;;7.50;6.90;;;;;;;;;;5072426;28;20447;-73
2021/06/03 03:00:06;;;;;;;8.77;7.40;;;;;;;;;;5063850;28;20454;-75
2021/06/03 03:02:32;;;;;;;7.73;7.17;;;;;;;;;;5067328;28;20421;-75
2021/06/03 03:04:58;;;;;;;8.40;7.60;;;;;;;;;;5067088;28;20427;-76
2021/06/03 03:07:24;;;;;;;8.47;7.77;;;;;;;;;;5056076;28;20426;-75
2021/06/03 03:09:50;;;;;;;9.23;8.43;;;;;;;;;;5065428;28;20430;-76
2021/06/03 03:12:16;;;;;;;8.80;7.90;;;;;;;;;;5055719;28;20454;-74
2021/06/03 03:14:42;;;;;;;8.60;8.00;;;;;;;;;;5063213;28;20497;-75
2021/06/03 03:17:08;;;;;;;8.93;8.23;;;;;;;;;;5060475;28;20788;-76
2021/06/03 03:19:35;;;;;;;8.90;8.20;;;;;;;;;;5071074;28;20422;-74
2021/06/03 03:22:02;;;;;;;9.77;8.77;;;;;;;;;;5060306;28;20753;-75
2021/06/03 03:24:28;;;;;;;9.03;8.13;;;;;;;;;;5058155;28;20432;-74
2021/06/03 03:26:54;;;;;;;9.60;8.70;;;;;;;;;;5055584;28;20485;-73
2021/06/03 03:29:20;;;;;;;9.40;8.50;;;;;;;;;;5063485;28;20441;-74
2021/06/03 03:31:46;;;;;;;8.77;7.87;;;;;;;;;;5078773;28;20450;-75
2021/06/03 03:34:13;;;;;;;8.30;7.70;;;;;;;;;;5072980;28;20460;-75
2021/06/03 03:36:39;;;;;;;9.40;8.60;;;;;;;;;;5064396;28;20976;-75
2021/06/03 03:39:06;;;;;;;7.87;7.27;;;;;;;;;;5076872;28;20426;-74
2021/06/03 03:41:32;;;;;;;8.60;7.93;;;;;;;;;;5059630;28;20987;-75
2021/06/03 03:43:58;;;;;;;9.10;8.30;;;;;;;;;;5066735;28;20435;-75
2021/06/03 03:46:24;;;;;;;8.83;7.93;;;;;;;;;;5065478;28;20441;-74
2021/06/03 03:48:50;;;;;;;9.50;8.70;;;;;;;;;;5066460;28;20422;-73
2021/06/03 03:51:16;;;;;;;8.57;7.80;;;;;;;;;;5055188;28;20438;-74
2021/06/03 03:53:43;;;;;;;8.67;7.70;;;;;;;;;;5068415;28;20463;-74
2021/06/03 03:56:11;;;;;;;11.53;8.20;;;;;;;;;;5088747;28;20432;-75
2021/06/03 03:58:41;;;;;;;8.47;7.70;;;;;;;;;;5054833;28;20415;-75
2021/06/03 04:01:07;;;;;;;8.60;7.90;;;;;;;;;;5071949;28;21005;-74
2021/06/03 04:03:33;;;;;;;8.97;8.17;;;;;;;;;;5064486;28;20427;-75
2021/06/03 04:05:59;;;;;;;9.67;8.77;;;;;;;;;;5054768;28;20437;-75
2021/06/03 04:08:25;;;;;;;8.50;7.80;;;;;;;;;;5054654;28;20422;-75
2021/06/03 04:10:51;;;;;;;9.73;9.03;;;;;;;;;;5064746;28;20451;-74
2021/06/03 04:13:17;;;;;;;11.60;9.07;;;;;;;;;;5066061;28;20462;-76
2021/06/03 04:15:43;;;;;;;9.23;8.53;;;;;;;;;;5076458;28;20436;-74
2021/06/03 04:18:09;;;;;;;9.53;8.73;;;;;;;;;;5073792;28;20426;-74
2021/06/03 04:20:35;;;;;;;9.20;8.50;;;;;;;;;;5061291;28;20565;-75
2021/06/03 04:23:02;;;;;;;8.50;7.90;;;;;;;;;;5055313;28;20431;-76
2021/06/03 04:25:29;;;;;;;9.67;8.77;;;;;;;;;;5065875;28;20766;-75
2021/06/03 04:27:55;;;;;;;9.43;8.63;;;;;;;;;;5059098;28;20414;-74
2021/06/03 04:30:22;;;;;;;9.30;8.60;;;;;;;;;;5068793;28;20451;-74
2021/06/03 04:32:48;;;;;;;10.20;9.30;;;;;;;;;;5072834;28;20424;-75
2021/06/03 04:35:17;;;;;;;9.20;8.40;;;;;;;;;;5057414;28;20519;-74
2021/06/03 04:37:44;;;;;;;10.33;9.23;;;;;;;;;;5053932;28;20896;-75
2021/06/03 04:40:11;;;;;;;9.63;8.93;;;;;;;;;;5064718;28;20443;-75
2021/06/03 04:42:37;;;;;;;10.37;9.43;;;;;;;;;;5074444;28;20436;-76
2021/06/03 04:45:04;;;;;;;9.90;9.10;;;;;;;;;;5061748;28;20433;-75
2021/06/03 04:47:30;;;;;;;9.77;8.60;;;;;;;;;;5054099;28;20415;-74
2021/06/03 04:49:56;;;;;;;9.80;8.90;;;;;;;;;;5058459;28;20445;-75
2021/06/03 04:52:26;;;;;;;11.63;9.27;;;;;;;;;;5060345;28;20920;-75
2021/06/03 04:54:53;;;;;;;10.00;9.20;;;;;;;;;;5087476;28;20503;-75
2021/06/03 04:57:19;;;;;;;10.43;9.60;;;;;;;;;;5062430;28;20856;-74
2021/06/03 04:59:45;;;;;;;9.83;9.00;;;;;;;;;;5058446;28;20449;-74
2021/06/03 05:02:11;;;;;;;10.90;9.90;;;;;;;;;;5081382;28;20461;-75
2021/06/03 05:04:37;;;;;;;11.37;10.33;;;;;;;;;;5058061;28;20423;-74
2021/06/03 05:07:03;;;;;;;10.60;9.53;;;;;;;;;;5053455;28;20781;-75
2021/06/03 05:09:29;;;;;;;11.53;10.33;;;;;;;;;;5062133;28;20450;-74
2021/06/03 05:11:55;;;;;;;10.03;9.13;;;;;;;;;;5054142;28;20435;-75
2021/06/03 05:14:21;;;;;;;9.97;9.20;;;;;;;;;;5063386;28;20888;-75
2021/06/03 05:16:47;;;;;;;9.70;8.80;;;;;;;;;;5052297;28;20415;-76
2021/06/03 05:19:13;;;;;;;11.03;10.07;;;;;;;;;;5066671;28;20424;-75
2021/06/03 05:21:39;;;;;;;10.63;9.60;;;;;;;;;;5066580;28;20772;-76
2021/06/03 05:24:05;;;;;;;11.90;8.97;;;;;;;;;;5079639;28;20431;-76
2021/06/03 05:26:31;;;;;;;10.63;9.77;;;;;;;;;;5056984;28;20421;-76
2021/06/03 05:28:57;;;;;;;13.77;8.80;;;;;;;;;;5063103;28;20791;-75
2021/06/03 05:31:23;;;;;;;9.77;8.97;;;;;;;;;;5076544;28;20442;-76
2021/06/03 05:33:49;;;;;;;9.70;9.00;;;;;;;;;;5055322;28;20459;-75
2021/06/03 05:36:15;;;;;;;12.73;9.57;;;;;;;;;;5073759;28;20423;-74
2021/06/03 05:38:41;;;;;;;9.57;8.67;;;;;;;;;;5053219;28;20442;-74
2021/06/03 05:41:07;;;;;;;10.90;9.90;;;;;;;;;;5058075;28;20451;-74
2021/06/03 05:43:33;;;;;;;10.60;9.50;;;;;;;;;;5052944;28;20416;-73
2021/06/03 05:45:59;;;;;;;10.20;9.30;;;;;;;;;;5076535;28;20562;-74
2021/06/03 05:48:25;;;;;;;10.80;9.90;;;;;;;;;;5069412;28;21023;-75
2021/06/03 05:50:51;;;;;;;10.07;9.17;;;;;;;;;;5067907;28;20522;-75
2021/06/03 05:53:17;;;;;;;10.13;9.20;;;;;;;;;;5057588;28;20522;-75
2021/06/03 05:55:43;;;;;;;9.30;8.50;;;;;;;;;;5070224;28;20871;-75
2021/06/03 05:58:11;;;;;;;10.87;9.20;;;;;;;;;;5053148;28;20411;-76
2021/06/03 06:00:37;;;;;;;9.73;8.97;;;;;;;;;;5077165;28;21001;-75
2021/06/03 06:03:21;;;;;;;10.27;9.10;;;;;;;;;;5072561;28;20403;-74
2021/06/03 06:06:10;;;;;;;10.13;9.17;;;;;;;;;;5056998;28;20469;-74
2021/06/03 06:08:37;;;;;;;10.33;9.43;;;;;;;;;;5052896;28;20407;-74
2021/06/03 06:11:03;;;;;;;10.60;9.50;;;;;;;;;;5065494;28;20501;-76
2021/06/03 06:13:29;;;;;;;10.40;9.60;;;;;;;;;;5052088;28;20467;-74
2021/06/03 06:15:55;;;;;;;11.70;9.33;;;;;;;;;;5082954;28;20429;-74
2021/06/03 06:18:21;;;;;;;10.07;9.07;;;;;;;;;;5076902;28;20484;-74
2021/06/03 06:20:47;;;;;;;10.20;9.17;;;;;;;;;;5069841;28;20435;-75
2021/06/03 06:23:14;;;;;;;11.90;10.67;;;;;;;;;;5072112;28;20426;-76
2021/06/03 06:25:42;;;;;;;10.10;9.20;;;;;;;;;;5062737;28;20916;-73
2021/06/03 06:28:08;;;;;;;10.17;9.10;;;;;;;;;;5063163;28;20419;-74
2021/06/03 06:30:34;;;;;;;10.47;9.47;;;;;;;;;;5073167;28;20458;-75
2021/06/03 06:33:00;;;;;;;9.80;8.90;;;;;;;;;;5092187;28;20421;-75
2021/06/03 06:35:27;;;;;;;10.40;9.40;;;;;;;;;;5059045;28;20455;-74
2021/06/03 06:37:53;;;;;;;9.23;8.60;;;;;;;;;;5056330;28;20419;-75
2021/06/03 06:40:19;;;;;;;9.77;8.97;;;;;;;;;;5058166;28;20716;-74
2021/06/03 06:42:53;;;;;;;10.90;9.90;;;;;;;;;;5067230;28;20492;-75
2021/06/03 06:45:19;;;;;;;10.77;9.87;;;;;;;;;;5059387;28;20425;-75
2021/06/03 06:47:45;;;;;;;10.27;9.37;;;;;;;;;;5061922;28;20496;-74
2021/06/03 06:50:11;;;;;;;11.43;10.03;;;;;;;;;;5063847;28;20924;-74
2021/06/03 06:52:37;;;;;;;13.80;12.20;;;;;;;;;;5062216;28;20761;-75
2021/06/03 06:55:07;;;;;;;10.00;9.20;;;;;;;;;;5078804;28;20457;-75
2021/06/03 06:57:33;;;;;;;10.73;9.93;;;;;;;;;;5066929;28;20419;-76
2021/06/03 06:59:59;;;;;;;10.00;9.07;;;;;;;;;;5068764;28;20511;-74
2021/06/03 07:02:25;;;;;;;10.90;9.97;;;;;;;;;;5079236;28;20447;-75
2021/06/03 07:04:51;;;;;;;10.40;9.53;;;;;;;;;;5078407;28;20419;-75
2021/06/03 07:07:18;;;;;;;9.70;8.90;;;;;;;;;;5056129;28;20473;-73
2021/06/03 07:09:44;;;;;;;9.83;8.83;;;;;;;;;;5055867;28;20435;-74
2021/06/03 07:12:12;;;;;;;11.13;10.03;;;;;;;;;;5067903;28;20505;-76
2021/06/03 07:14:38;;;;;;;10.37;9.47;;;;;;;;;;5075937;28;20453;-75
2021/06/03 07:17:04;;;;;;;10.37;9.40;;;;;;;;;;5066588;28;20414;-75
2021/06/03 07:19:31;;;;;;;10.60;9.50;;;;;;;;;;5058978;28;20495;-74
2021/06/03 07:21:57;;;;;;;11.20;10.30;;;;;;;;;;5074348;28;20785;-75
2021/06/03 07:24:23;;;;;;;10.23;9.33;;;;;;;;;;5056201;28;20426;-75
2021/06/03 07:26:49;;;;;;;10.57;9.67;;;;;;;;;;5060507;28;20451;-75
2021/06/03 07:29:15;;;;;;;10.67;9.77;;;;;;;;;;5070168;28;20593;-75
2021/06/03 07:31:41;;;;;;;10.20;9.40;;;;;;;;;;5077157;28;20445;-74
2021/06/03 07:34:07;;;;;;;10.60;9.80;;;;;;;;;;5074017;28;20808;-76
2021/06/03 07:36:34;;;;;;;10.77;9.67;;;;;;;;;;5059950;28;20535;-74
2021/06/03 07:39:00;;;;;;;9.87;8.97;;;;;;;;;;5055356;28;20415;-74
2021/06/03 07:41:26;;;;;;;9.60;8.80;;;;;;;;;;5057643;28;20443;-74
2021/06/03 07:43:53;;;;;;;10.10;8.97;;;;;;;;;;5074051;28;20888;-73
2021/06/03 07:46:19;;;;;;;10.50;9.10;;;;;;;;;;5066607;28;20481;-74
2021/06/03 07:48:45;;;;;;;9.40;8.70;;;;;;;;;;5064149;28;20413;-76
2021/06/03 07:51:12;;;;;;;9.37;8.47;;;;;;;;;;5073160;28;20474;-75
2021/06/03 07:53:38;;;;;;;9.50;8.70;;;;;;;;;;5061099;28;20516;-75
2021/06/03 07:56:04;;;;;;;9.37;8.60;;;;;;;;;;5065584;28;20759;-75
2021/06/03 07:58:30;;;;;;;9.67;8.70;;;;;;;;;;5054815;28;20916;-76
2021/06/03 08:00:56;;;;;;;9.87;9.00;;;;;;;;;;5078869;28;20437;-76
2021/06/03 08:03:22;;;;;;;9.53;8.60;;;;;;;;;;5083488;28;20421;-75
2021/06/03 08:05:48;;;;;;;8.87;8.20;;;;;;;;;;5062278;28;20435;-75
2021/06/03 08:08:14;;;;;;;8.77;8.07;;;;;;;;;;5054257;28;20410;-76
2021/06/03 08:10:42;;;;;;;10.17;9.17;;;;;;;;;;5063843;28;20443;-74
2021/06/03 08:13:08;;;;;;;8.93;8.13;;;;;;;;;;5062677;28;20422;-75
2021/06/03 08:15:34;;;;;;;8.97;8.33;;;;;;;;;;5077051;28;21048;-75
2021/06/03 08:18:02;;;;;;;10.23;7.90;;;;;;;;;;5059214;28;20418;-76
2021/06/03 08:20:36;;;;;;;8.23;7.57;;;;;;;;;;5059306;28;20423;-75
2021/06/03 08:23:02;;;;;;;8.43;7.80;;;;;;;;;;5058337;28;20422;-75
2021/06/03 08:25:28;;;;;;;9.27;8.37;;;;;;;;;;5067112;28;20423;-74
2021/06/03 08:27:55;;;;;;;9.67;8.87;;;;;;;;;;5079148;28;20423;-75
2021/06/03 08:30:21;;;;;;;9.20;8.40;;;;;;;;;;5069427;28;20455;-75
2021/06/03 08:32:48;;;;;;;8.47;7.77;;;;;;;;;;5083488;28;20421;-75
2021/06/03 08:35:15;;;;;;;8.77;7.90;;;;;;;;;;5065646;28;20471;-75
2021/06/03 08:37:42;;;;;;;10.13;7.97;;;;;;;;;;5071766;28;20429;-75
2021/06/03 08:40:08;;;;;;;8.37;7.47;;;;;;;;;;5070863;28;20485;-75
2021/06/03 08:42:35;;;;;;;8.13;7.33;;;;;;;;;;5057916;28;20485;-75
2021/06/03 08:45:01;;;;;;;8.90;8.13;;;;;;;;;;5054976;28;20470;-75
2021/06/03 08:47:29;;;;;;;8.00;7.30;;;;;;;;;;5054478;28;20431;-75
2021/06/03 08:49:55;;;;;;;8.67;7.83;;;;;;;;;;5069865;28;20425;-76
2021/06/03 08:52:21;;;;;;;8.57;7.70;;;;;;;;;;5072920;28;20434;-74
2021/06/03 08:54:53;;;;;;;8.93;7.50;;;;;;;;;;5078986;28;20453;-75
2021/06/03 08:57:19;;;;;;;8.80;7.90;;;;;;;;;;5080344;28;20423;-75
2021/06/03 08:59:45;;;;;;;8.17;7.47;;;;;;;;;;5063452;28;20412;-75
2021/06/03 09:02:11;;;;;;;8.07;7.27;;;;;;;;;;5054262;28;20411;-75
2021/06/03 09:04:37;;;;;;;7.87;7.27;;;;;;;;;;5054930;28;20416;-74
2021/06/03 09:07:03;;;;;;;8.20;7.60;;;;;;;;;;5053846;28;20432;-75
2021/06/03 09:09:30;;;;;;;8.30;7.70;;;;;;;;;;5053512;28;20516;-76
2021/06/03 09:12:10;;;;;;;7.87;7.17;;;;;;;;;;5053706;28;20832;-75
2021/06/03 09:14:36;;;;;;;8.10;7.50;;;;;;;;;;5054342;28;20462;-75
2021/06/03 09:17:02;;;;;;;7.67;7.00;;;;;;;;;;5080510;28;20478;-76
2021/06/03 09:19:28;;;;;;;8.47;7.73;;;;;;;;;;5053040;28;20438;-73
2021/06/03 09:21:54;;;;;;;8.43;7.40;;;;;;;;;;5051993;28;21193;-78
2021/06/03 09:24:21;;;;;;;8.60;7.83;;;;;;;;;;5072528;28;21209;-76
2021/06/03 09:26:57;;;;;;;7.73;6.53;;;;;;;;;;5057222;28;20465;-74
2021/06/03 09:29:24;;;;;;;8.33;7.73;;;;;;;;;;5057290;28;20407;-78
2021/06/03 09:31:51;;;;;;;8.23;7.57;;;;;;;;;;5067532;28;20441;-76
2021/06/03 09:34:18;;;;;;;7.50;7.00;;;;;;;;;;5079312;28;20989;-76
2021/06/03 09:36:46;;;;;;;8.40;7.27;;;;;;;;;;5061211;28;20816;-76
2021/06/03 09:39:21;;;;;;;7.43;6.83;;;;;;;;;;5082537;28;20434;-78
2021/06/03 09:41:47;;;;;;;8.70;7.90;;;;;;;;;;5053995;28;20470;-79
2021/06/03 09:44:13;;;;;;;8.43;7.73;;;;;;;;;;5059009;28;20508;-73
2021/06/03 09:46:47;;;;;;;7.93;6.83;;;;;;;;;;5063081;28;20431;-75
2021/06/03 09:49:33;;;;;;;7.90;7.20;;;;;;;;;;5058234;28;20423;-76
2021/06/03 09:52:07;;;;;;;8.67;7.47;;;;;;;;;;5083287;28;20514;-76
2021/06/03 09:54:34;;;;;;;7.23;6.70;;;;;;;;;;5073345;28;21309;-75
2021/06/03 09:57:04;;;;;;;7.70;7.00;;;;;;;;;;5060096;28;20533;-76
2021/06/03 09:59:30;;;;;;;8.13;7.33;;;;;;;;;;5049087;28;20407;-77
2021/06/03 10:01:58;;;;;;;7.70;7.10;;;;;;;;;;5054950;28;20459;-77
2021/06/03 10:04:25;;;;;;;7.90;7.20;;;;;;;;;;5049039;28;20416;-76
2021/06/03 10:06:57;;;;;;;7.53;6.50;;;;;;;;;;5053228;28;20435;-78
2021/06/03 10:09:36;;;;;;;7.53;7.03;;;;;;;;;;5069860;28;20431;-76
2021/06/03 10:12:03;;;;;;;8.90;8.20;;;;;;;;;;5049193;28;20449;-77
2021/06/03 10:14:29;;;;;;;7.53;6.17;;;;;;;;;;5065735;28;20589;-76
2021/06/03 10:16:55;;;;;;;7.27;6.57;;;;;;;;;;5069149;28;20475;-75
2021/06/03 10:19:27;;;;;;;7.00;6.30;;;;;;;;;;5062699;28;20792;-74
2021/06/03 10:22:12;;;;;;;6.87;6.37;;;;;;;;;;5048854;28;20797;-77
2021/06/03 10:24:52;;;;;;;7.13;6.63;;;;;;;;;;5052890;28;20521;-75
2021/06/03 10:27:18;;;;;;;6.50;6.00;;;;;;;;;;5048925;28;20477;-78
2021/06/03 10:29:45;;;;;;;6.77;6.27;;;;;;;;;;5064494;28;20462;-75
2021/06/03 10:32:11;;;;;;;10.20;6.27;;;;;;;;;;5049100;28;20420;-77
2021/06/03 10:34:37;;;;;;;6.70;6.00;;;;;;;;;;5055717;28;20467;-75
2021/06/03 10:37:05;;;;;;;7.80;6.37;;;;;;;;;;5061410;28;20419;-75
2021/06/03 10:39:32;;;;;;;7.57;6.90;;;;;;;;;;5056984;28;20497;-76
2021/06/03 10:42:00;;;;;;;7.00;6.40;;;;;;;;;;5048828;28;20435;-75
2021/06/03 10:44:27;;;;;;;7.00;6.30;;;;;;;;;;5048968;28;20439;-76
2021/06/03 10:46:53;;;;;;;6.70;6.07;;;;;;;;;;5051543;28;20928;-74
2021/06/03 10:49:20;;;;;;;7.30;6.60;;;;;;;;;;5048843;28;20419;-75
2021/06/03 10:51:46;;;;;;;7.47;6.87;;;;;;;;;;5062407;28;20458;-75
2021/06/03 10:54:12;;;;;;;7.50;7.00;;;;;;;;;;5048742;28;20467;-74
2021/06/03 10:56:38;;;;;;;7.30;6.60;;;;;;;;;;5061469;28;20449;-75
2021/06/03 10:59:24;;;;;;;6.90;6.40;;;;;;;;;;5061289;28;20435;-75
2021/06/03 11:01:52;;;;;;;7.60;7.00;;;;;;;;;;5048577;28;20454;-75
2021/06/03 11:04:26;;;;;;;8.37;7.47;;;;;;;;;;5061203;28;20441;-74
2021/06/03 11:06:52;;;;;;;7.83;7.13;;;;;;;;;;5048995;28;20518;-74
2021/06/03 11:09:25;;;;;;;7.63;6.57;;;;;;;;;;5061924;28;20510;-73
2021/06/03 11:12:05;;;;;;;8.40;7.70;;;;;;;;;;5052194;28;20477;-74
2021/06/03 11:14:31;;;;;;;20.53;7.20;;;;;;;;;;5069272;28;20551;-75
2021/06/03 11:16:59;;;;;;;7.33;6.73;;;;;;;;;;5072138;28;20410;-74
2021/06/03 11:19:30;;;;;;;7.93;7.27;;;;;;;;;;5063983;28;20439;-76
2021/06/03 11:21:57;;;;;;;8.13;7.33;;;;;;;;;;5051993;28;20517;-72
2021/06/03 11:24:41;;;;;;;8.13;6.80;;;;;;;;;;5056532;28;20471;-73
2021/06/03 11:27:09;;;;;;;9.10;7.30;;;;;;;;;;5053244;28;20435;-72
2021/06/03 11:29:35;;;;;;;9.10;7.70;;;;;;;;;;5081695;28;20447;-73
2021/06/03 11:32:01;;;;;;;8.13;7.43;;;;;;;;;;5053832;28;20877;-72
2021/06/03 11:34:27;;;;;;;7.53;6.93;;;;;;;;;;5062761;28;20466;-72
2021/06/03 11:36:58;;;;;;;8.80;8.10;;;;;;;;;;5066004;28;20438;-74
2021/06/03 11:39:33;;;;;;;7.87;7.17;;;;;;;;;;5065798;28;20416;-72
2021/06/03 11:42:19;;;;;;;8.50;7.10;;;;;;;;;;5059434;28;20466;-75
2021/06/03 11:45:03;;;;;;;8.47;7.10;;;;;;;;;;5054507;28;20431;-74
2021/06/03 11:47:30;;;;;;;7.60;6.83;;;;;;;;;;5053000;28;21105;-74
2021/06/03 11:49:56;;;;;;;9.13;8.30;;;;;;;;;;5051615;28;20490;-75
2021/06/03 11:52:23;;;;;;;10.50;7.57;;;;;;;;;;5053568;28;20514;-74
2021/06/03 11:54:52;;;;;;;9.00;8.20;;;;;;;;;;5051493;28;20866;-72
2021/06/03 11:57:18;;;;;;;11.80;8.00;;;;;;;;;;5051853;28;20415;-75
2021/06/03 11:59:57;;;;;;;8.70;7.83;;;;;;;;;;5077921;28;20521;-74
2021/06/03 12:02:29;;;;;;;9.40;8.50;;;;;;;;;;5052101;28;20411;-73
2021/06/03 12:05:11;;;;;;;11.10;7.77;;;;;;;;;;5062094;28;20419;-72
2021/06/03 12:07:49;;;;;;;10.50;7.90;;;;;;;;;;5052946;28;20430;-73
2021/06/03 12:10:19;;;;;;;9.13;7.87;;;;;;;;;;5058627;28;20443;-75
2021/06/03 12:12:45;;;;;;;8.77;7.90;;;;;;;;;;5054334;28;20423;-71
2021/06/03 12:15:21;;;;;;;9.50;8.67;;;;;;;;;;5071073;28;20819;-75
2021/06/03 12:17:47;;;;;;;7.80;7.20;;;;;;;;;;5070843;28;20776;-73
2021/06/03 12:20:15;;;;;;;8.93;7.87;;;;;;;;;;5056094;28;20440;-73
2021/06/03 12:22:41;;;;;;;8.50;7.60;;;;;;;;;;5057015;28;20792;-75
2021/06/03 12:25:08;;;;;;;8.40;7.70;;;;;;;;;;5055474;28;20940;-73
2021/06/03 12:27:35;;;;;;;7.93;7.33;;;;;;;;;;5054605;28;20831;-74
2021/06/03 12:30:22;;;;;;;8.37;7.67;;;;;;;;;;5069219;28;20461;-73
2021/06/03 12:33:00;;;;;;;8.10;7.30;;;;;;;;;;5068588;28;20422;-73
2021/06/03 12:35:34;;;;;;;7.40;6.80;;;;;;;;;;5050694;28;20466;-75
2021/06/03 12:38:01;;;;;;;7.47;6.77;;;;;;;;;;5061304;28;20424;-73
2021/06/03 12:40:28;;;;;;;8.20;7.57;;;;;;;;;;5067567;28;20432;-73
2021/06/03 12:43:11;;;;;;;8.17;7.40;;;;;;;;;;5055411;28;20485;-75
2021/06/03 12:45:38;;;;;;;7.30;6.70;;;;;;;;;;5056186;28;20411;-77
2021/06/03 12:48:06;;;;;;;8.50;7.70;;;;;;;;;;5055935;28;20471;-74
2021/06/03 12:50:36;;;;;;;7.83;7.03;;;;;;;;;;5055881;28;20518;-76
2021/06/03 12:53:07;;;;;;;9.17;7.43;;;;;;;;;;5061650;28;20463;-74
2021/06/03 12:55:33;;;;;;;7.77;7.07;;;;;;;;;;5054165;28;20556;-75
2021/06/03 12:58:05;;;;;;;8.50;7.80;;;;;;;;;;5059144;28;20428;-75
2021/06/03 13:00:32;;;;;;;8.17;7.37;;;;;;;;;;5050264;28;20440;-77
2021/06/03 13:03:08;;;;;;;7.90;7.20;;;;;;;;;;5057555;28;20454;-72
2021/06/03 13:05:34;;;;;;;8.13;7.43;;;;;;;;;;5052183;28;20935;-74
2021/06/03 13:08:00;;;;;;;7.70;7.00;;;;;;;;;;5055765;28;20527;-75
2021/06/03 13:10:26;;;;;;;8.00;7.20;;;;;;;;;;5050114;28;20438;-72
2021/06/03 13:13:04;;;;;;;8.97;8.13;;;;;;;;;;5059241;28;20781;-74
2021/06/03 13:15:30;;;;;;;9.23;7.83;;;;;;;;;;5063597;28;20532;-76
2021/06/03 13:18:04;;;;;;;9.50;6.90;;;;;;;;;;5069700;28;20465;-73
2021/06/03 13:20:42;;;;;;;8.20;7.50;;;;;;;;;;5049905;28;20480;-74
2021/06/03 13:23:09;;;;;;;9.17;8.37;;;;;;;;;;5049737;28;20439;-73
2021/06/03 13:25:43;;;;;;;7.60;7.00;;;;;;;;;;5050084;28;20518;-74
2021/06/03 13:28:10;;;;;;;7.97;7.37;;;;;;;;;;5056920;28;20431;-74
2021/06/03 13:30:39;;;;;;;7.70;7.00;;;;;;;;;;5067349;28;20480;-75
2021/06/03 13:33:05;;;;;;;8.07;7.43;;;;;;;;;;5051534;28;20427;-73
2021/06/03 13:35:31;;;;;;;8.63;7.77;;;;;;;;;;5049406;28;20866;-73
2021/06/03 13:37:57;;;;;;;8.17;7.67;;;;;;;;;;5076678;28;20450;-75
2021/06/03 13:40:24;;;;;;;7.70;7.10;;;;;;;;;;5049455;28;20959;-74
2021/06/03 13:42:52;;;;;;;9.37;7.10;;;;;;;;;;5061578;28;20431;-73
2021/06/03 13:45:24;;;;;;;15.77;14.27;;;;;;;;;;5053745;28;20435;-75
2021/06/03 13:47:52;;;;;;;10.23;9.23;;;;;;;;;;5066318;28;20522;-75
2021/06/03 13:50:20;;;;;;;8.80;7.97;;;;;;;;;;5057123;28;20436;-76
2021/06/03 13:52:50;;;;;;;9.90;7.70;;;;;;;;;;5049017;28;20426;-73
2021/06/03 13:55:18;;;;;;;8.50;7.90;;;;;;;;;;5057923;28;20466;-72
2021/06/03 13:57:45;;;;;;;8.70;7.30;;;;;;;;;;5049172;28;20416;-73
2021/06/03 14:00:11;;;;;;;8.30;7.50;;;;;;;;;;5054730;28;20474;-76
2021/06/03 14:02:37;;;;;;;8.37;7.67;;;;;;;;;;5049459;28;20461;-73
2021/06/03 14:05:13;;;;;;;8.70;7.90;;;;;;;;;;5058242;28;20488;-76
2021/06/03 14:07:39;;;;;;;8.10;7.40;;;;;;;;;;5047752;28;20431;-75
2021/06/03 14:10:09;;;;;;;8.77;7.57;;;;;;;;;;5051838;28;20927;-74
2021/06/03 14:12:44;;;;;;;9.07;8.27;;;;;;;;;;5049627;28;20516;-76
2021/06/03 14:15:13;;;;;;;7.40;6.70;;;;;;;;;;5075585;28;20466;-75
2021/06/03 14:17:39;;;;;;;8.20;7.20;;;;;;;;;;5049296;28;20411;-74
2021/06/03 14:20:08;;;;;;;8.33;7.47;;;;;;;;;;5072453;28;20451;-73
2021/06/03 14:22:40;;;;;;;7.80;7.10;;;;;;;;;;5049501;28;20420;-74
2021/06/03 14:25:08;;;;;;;8.40;7.70;;;;;;;;;;5059686;28;20438;-75
2021/06/03 14:27:36;;;;;;;7.97;7.13;;;;;;;;;;5051565;28;20447;-73
2021/06/03 14:30:02;;;;;;;8.07;7.37;;;;;;;;;;5059166;28;20447;-75
2021/06/03 14:32:30;;;;;;;7.70;6.90;;;;;;;;;;5060589;28;20454;-72
2021/06/03 14:35:08;;;;;;;9.00;8.17;;;;;;;;;;5050003;28;20505;-74
2021/06/03 14:37:34;;;;;;;7.23;6.63;;;;;;;;;;5053568;28;20445;-72
2021/06/03 14:40:00;;;;;;;8.00;7.30;;;;;;;;;;5055967;28;20461;-75
2021/06/03 14:42:35;;;;;;;7.77;7.17;;;;;;;;;;5050110;28;20417;-75
2021/06/03 14:45:21;;;;;;;7.73;7.13;;;;;;;;;;5061394;28;20891;-74